aviador You're here:

UGKO Decoded Metar

KOPITNARI in GEORGIA
Report Time2018-04-24 18:00:00
UTC Time2018-04-24 18:33:31
Flight Rules vfr VFR
Wind080° at 05 kt
W.Decomp.*RWY 08: 5.0 kt HW 0.5 kt LCW
W.Rank080° ranks 2
Current wind is below 080° avg. (13.1)
Visibility9999 m
Phenomena:N/A
Clouds:N/A
Expected CloudBase > 800 ft AGL from Temp-Dew spread
CeilingNone
Temp10°C (ISA -5)
Dew Point08°C (88% RH)
AAT7.8°C
QNH1019 hPa
Density Alt-381 ft
Elevation223 ft
Report Wrong Elevation
Raw Report
METAR UGKO 241800Z 08005KT CAVOK 10/08 Q1019 R25/09//70 NOSIG=

Extra information for UGKO:More info

Metar Taf Metar & Taf Last 4 Metars F.Rules Stats Wind Profile Meteogram Temp Stats Airport Information Weather charts Add Link Nearby VenuesMetar ALERT Operation Metar Decoded Social comments